空港情報

日本の空港の気象及び、管制情報です。
気象情報はより詳細な情報が取得できる「AVIATION WEATER CENTER」 から取得しているため、VATSIMの気象情報と若干のタイムラグが生じることがあります。

VRCのフィールド設定用空港一覧はこちらをご覧ください。

RJCG Sapporo Control

RJCW / Wakkanai

NO RADAR

RADIO

08/26 2200x45

民間 civil

過去5時間に発表されたMETARがありません。

RJER / Rishiri

NO RADAR

REMOTE

25/07 1800x45

民間 civil

過去5時間に発表されたMETARがありません。

RJEB / Monbetsu

NO RADAR

REMOTE

32/14 2000x45

民間 civil

過去5時間に発表されたMETARがありません。

RJCM / Memanbetsu

NO RADAR

TOWER

36/18 2500x45

民間 civil

過去5時間に発表されたMETARがありません。

RJEC / Asahikawa

NO RADAR

TOWER

34/16 2500x60

民間 civil

過去5時間に発表されたMETARがありません。

RJCN / Nakashibetsu

NO RADAR

RADIO

08/26 2000x45

民間 civil

過去5時間に発表されたMETARがありません。

RJCK / Kushiro

NO RADAR

TOWER

17/35 2500x45

民間 civil

過去5時間に発表されたMETARがありません。

RJCO / Sapporo

RJCO_APP

TOWER

14/32 1500x30

共用 dual

過去5時間に発表されたMETARがありません。

RJCJ / Chitose

RJCC_APP

TOWER

36R/18L 3000x60
36L/18R 2700x45

自衛隊 military

過去5時間に発表されたMETARがありません。

RJCC / NewChitose
VMC

RJCC_APP

TOWER

01L/19R 3000x60
01R/19L 3000x60

民間 civil

9999

160@6KT

29.97

RJCC 031600Z 16006KT 9999 FEW030 SCT/// 01/00 Q1015

RJCB / Obihiro

NO RADAR

TOWER

35/17 2500x45

民間 civil

過去5時間に発表されたMETARがありません。

RJEO / Okushiri

NO RADAR

REMOTE

12/30 1500x45

民間 civil

過去5時間に発表されたMETARがありません。

RJCH / Hakodate

RJCH_APP

TOWER

12/30 3000x45

民間 civil

過去5時間に発表されたMETARがありません。

RJSA / Aomori
VMC

NO RADAR

TOWER

24/06 3000x60

民間 civil

9999

210@15KT

30.00

RJSA 031200Z 21015KT 9999 FEW030 08/03 Q1016

RJSO / Ominato

RJSM_APP

TOWER

04/22 600x45

自衛隊 military

過去5時間に発表されたMETARがありません。

RJSM / Misawa
VMC

RJSM_APP

TOWER

10/28 3050x45

共用 dual

9999

250@5KT

30.00

RJSM 031600Z 25005KT 9999 FEW030 07/01 Q1016

RJSH / Hachinohe

RJSM_APP

TOWER

25/07 2250x45

自衛隊 military

過去5時間に発表されたMETARがありません。

RJSK / Akita
VMC

NO RADAR

TOWER

10/28 2500x60

民間 civil

9999

080@6KT

30.06

RJSK 031200Z 08006KT 9999 FEW040 07/02 Q1018

RJSI / Hanamaki

NO RADAR

RADIO

20/02 2500x45

民間 civil

過去5時間に発表されたMETARがありません。

RJSR / Odate-Noshiro

NO RADAR

REMOTE

11/29 2000x45

民間 civil

過去5時間に発表されたMETARがありません。

RJTG Tokyo Control

RJSY / Shonai
VMC

NO RADAR

RADIO

09/27 2000x45

民間 civil

9999

130@7KT

30.09

RJSY 031200Z 13007KT CAVOK 06/03 Q1019

RJSC / Yamagata

NO RADAR

RADIO

01/19 2000x45

民間 civil

過去5時間に発表されたMETARがありません。

RJST / Matsushima

RJSS_APP

TOWER

07/25 2071x46
15/33 1500x46

自衛隊 military

過去5時間に発表されたMETARがありません。

RJSS / Sendai
VMC

RJSS_APP

TOWER

27/09 3000x45
12/30 1200x45

民間 civil

9999

340@4KT

30.06

RJSS 031200Z 34004KT 310V010 9999 FEW040 08/06 Q1018

RJSD / Sado
VMC

NO RADAR

REMOTE

10/28 890x25

民間 civil

9999

000@1KT

30.00

RJSD 031600Z AUTO VRB01KT 9999 NCD 04/01 Q1016

RJSN / Niigata
VMC

RJSN_APP

TOWER

10/28 2500x45
04/22 1314x45

民間 civil

9999

140@5KT

30.06

RJSN 031200Z 14005KT CAVOK 10/M03 Q1018

RJSF / Fukushima

NO RADAR

RADIO

01/19 2500x60

民間 civil

過去5時間に発表されたMETARがありません。

RJAH / Ibaraki/Hyakuri
VMC

RJAH_APP

TOWER

03L/21R 2700x45
03R/21L 2700x45

共用 dual

7000

000@2KT

30.03

RJAH 031600Z VRB02KT 7000 -TSRA FEW020 BKN030 SCT035CB BKN050 12/09 Q1017

RJTT / Tokyo
VMC

RJTT_APP

TOWER

34LR/16RL 3000x60
04/22&05/23 2500x60

民間 civil

9999

160@8KT

30.03

RJTT 031600Z 16008KT 9999 FEW020 BKN130 14/11 Q1017 BECMG 28005KT

RJAA / Narita
VMC

RJTT_APP

TOWER

34L/16R 4000x60
34R/16L 2500x60

民間 civil

9999

160@7KT

30.06

RJAA 031600Z 16007KT 9999 VCSH FEW030 BKN140 13/11 Q1018 TEMPO -TSRA

RJTL / Shimofusa
VMC

RJTT_APP

TOWER

19/01 2250x45

自衛隊 military

9999

000@2KT

30.06

RJTL 031508Z VRB02KT 9999 -SHRA BKN030 FEW030TCU 12/11 Q1018 RMK 7CU030 2TCU030 A3008 TCU 5KM E MOV NE

RJTE / Tateyama

RJTT_APP

TOWER

09/27 300x45

自衛隊 military

過去5時間に発表されたMETARがありません。

RJTO / Oshima

NO RADAR

RADIO

03/21 1800x45

民間 civil

過去5時間に発表されたMETARがありません。

RJTK / Kisarazu

NO RADAR

TOWER

02/20 1830x45

自衛隊 military

過去5時間に発表されたMETARがありません。

RJAN / Niijima

NO RADAR

REMOTE

11/29 800x25

自衛隊 military

過去5時間に発表されたMETARがありません。

RJAZ / Kozushima

NO RADAR

REMOTE

11/29 800x25

民間 civil

過去5時間に発表されたMETARがありません。

RJTH / Hachijojima

NO RADAR

RADIO

26/08 2000x45

民間 civil

過去5時間に発表されたMETARがありません。

RJTF / Chofu

NO RADAR

Flight Service

35/17 800x30

民間 civil

過去5時間に発表されたMETARがありません。

RJTQ / Miyake

NO RADAR

REMOTE

02/20 1200x30

民間 civil

過去5時間に発表されたMETARがありません。

RJTC / Tachikawa

NO RADAR

TOWER

01/19 900x45

自衛隊 military

過去5時間に発表されたMETARがありません。

RJTA / Atsugi

NO RADAR

TOWER

01/19 2438x45

自衛隊 military

過去5時間に発表されたMETARがありません。

RJTU / Utsunomiya

RJTY_APP

TOWER

01/19 1700x45

自衛隊 military

過去5時間に発表されたMETARがありません。

RJTJ / Iruma

RJTY_APP

TOWER

17/35 2000x45

自衛隊 military

過去5時間に発表されたMETARがありません。

RJTY / Yokota
VMC

RJTY_APP

TOWER

18/36 3353x60

自衛隊 military

9999

300@3KT

30.10

RJTY 031556Z AUTO 30003KT 10SM FEW120 09/06 A3010 RMK AO2 SLP197 T00890056 FZRANO $

RJAF / Matsumoto

NO RADAR

RADIO

18/36 2000x45

民間 civil

過去5時間に発表されたMETARがありません。

RJNS / Shizuoka
VMC

NO RADAR

RADIO

30/12 2500x60

民間 civil

9999

000@2KT

30.09

RJNS 031200Z VRB02KT 9999 FEW030 BKN130 BKN/// 12/08 Q1019

RJNY / Yaizu-Shizuhama
VMC

NO RADAR

TOWER

27/09 1500x45

自衛隊 military

9999

280@4KT

30.09

RJNY 031425Z 28004KT 9999 FEW010 SCT140 BKN/// 11/08 Q1019 RMK 1ST010 3AC140 A3011

RJNH / Hamamatsu

RJNH_APP

TOWER

09/27 2550x60

自衛隊 military

過去5時間に発表されたMETARがありません。

RJGG / Chubu
VMC

RJGG_APP

TOWER

36/18 3500x60

民間 civil

9999

080@5KT

30.06

RJGG 031600Z 08005KT 9999 FEW030 SCT130 11/07 Q1018 BECMG 06005KT

RJNA / Nagoya

RJGG_APP

TOWER

34/16 2740x45

民間 civil

過去5時間に発表されたMETARがありません。

RJNG / Gifu

RJGG_APP

TOWER

28/10 2710x46

自衛隊 military

過去5時間に発表されたMETARがありません。

RJOE / Akeno

RJOE_APP

TOWER

13/31 500x30
04/22 500x30

自衛隊 military

過去5時間に発表されたMETARがありません。

RJNK / Komatsu
VMC

RJNK_APP

TOWER

06/24 2700x45

共用 dual

9999

000@0KT

30.03

RJNK 031600Z 00000KT 9999 NSC 06/01 Q1017

RJNW / Noto

NO RADAR

RADIO

25/07 2000x45

民間 civil

過去5時間に発表されたMETARがありません。

RJNT / Toyama
VMC

NO RADAR

TOWER

20/02 2000x45

民間 civil

9999

210@3KT

30.06

RJNT 031200Z 21003KT 170V230 CAVOK 09/04 Q1018

RJNF / Fukui

NO RADAR

REMOTE

18/36 1200x30

民間 civil

過去5時間に発表されたMETARがありません。

RJBD / Nanki-Shirahama

NO RADAR

RADIO

15/33 2000x45

民間 civil

過去5時間に発表されたMETARがありません。

RJOY / Yao

RJBB_APP

TOWER

27/09 1490x45
13/31 1200x30

民間 civil

過去5時間に発表されたMETARがありません。

RJOO / Osaka

RJBB_APP

TOWER

32L/14R 3000x60
32R/14L 1830x45

民間 civil

過去5時間に発表されたMETARがありません。

RJOB / Okayama
VMC

RJBB_APP

TOWER

07/25 3000x45

民間 civil

9999

020@1KT

30.09

RJOB 031200Z 02001KT 9999 FEW030 SCT110 BKN/// 09/04 Q1019

RJBB / Kansai
VMC

RJBB_APP

TOWER

06R/24L 3500x60
06L/24R 4000x60

民間 civil

9999

090@4KT

30.06

RJBB 031600Z AUTO 09004KT 9999 NSC 11/08 Q1018 NOSIG

RJBE / Kobe
VMC

RJBB_APP

TOWER

09/27 2500x60

民間 civil

9999

250@3KT

30.09

RJBE 031300Z 25003KT 220V280 9999 FEW035 SCT090 12/06 Q1019

RJBT / Tajima

NO RADAR

REMOTE

01/19 1200x30

民間 civil

過去5時間に発表されたMETARがありません。

RJOR / Tottori
VMC

NO RADAR

RADIO

10/28 2000x45

民間 civil

9999

130@5KT

30.06

RJOR 031200Z 13005KT CAVOK 10/06 Q1018

RJNO / Oki

NO RADAR

REMOTE

07/25 2000x45

民間 civil

過去5時間に発表されたMETARがありません。

RJOH / Miho
VMC

RJOH_APP

TOWER

25/07 2500x45

共用 dual

9999

190@4KT

30.03

RJOH 031600Z 19004KT 9999 FEW/// 06/05 Q1017

RJOC / Izumo

RJOH_APP

RADIO

07/25 2000x45

共用 dual

過去5時間に発表されたMETARがありません。

RJDG Fukuoka Control

RJOT / Takamatsu
VMC

RJBB_APP

TOWER

26/08 2500x60

民間 civil

9999

140@7KT

30.09

RJOT 031200Z 14007KT 9999 FEW030 BKN/// 09/06 Q1019

RJOK / Kochi

RJBB_APP

TOWER

32/14 2500x45

民間 civil

過去5時間に発表されたMETARがありません。

RJOS / Tokushima
VMC

RJOS_APP

TOWER

29/11 2500x45

共用 dual

9999

300@4KT

30.06

RJOS 031600Z 30004KT 9999 FEW030 BKN120 09/05 Q1018

RJOA / Hiroshima
VMC

RJOA_APP

TOWER

10/28 3000x60

民間 civil

9999

080@1KT

30.06

RJOA 031300Z 08001KT 9999 FEW025 SCT/// 10/04 Q1018

RJBH / Hiroshimanishi

NO RADAR

Flight Service

04/22 1800x45

民間 civil

過去5時間に発表されたMETARがありません。

RJOI / Iwakuni
VMC

RJOI_APP

TOWER

02/20 2440x60

共用 dual

9999

300@7KT

30.08

RJOI 031555Z 30007KT 9999 FEW025 SCT110 BKN190 11/06 A3008 RMK SLP184 T01060061

RJOM / Matsuyama
VMC

RJOI_APP

TOWER

14/32 2500x45

民間 civil

9999

130@4KT

30.09

RJOM 031200Z 13004KT 9999 FEW030 BKN130 13/07 Q1019

RJOZ / Ozuki

RJFZ_APP

TOWER

35/17 1201x61
12/30 899x46

自衛隊 military

過去5時間に発表されたMETARがありません。

RJOF / Hofu
VMC

RJFZ_APP

TOWER

30/12 1180x60
01/19 1480x45

自衛隊 military

9999

020@3KT

30.09

RJOF 031134Z 02003KT 9999 FEW040 SCT120 11/06 Q1019 RMK 1SC040 3AC120 A3010

RJDC / Yamaguchi-Ube
VMC

RJFZ_APP

RADIO

07/25 2500x45

民間 civil

9999

000@2KT

30.09

RJDC 031200Z VRB02KT 9999 FEW030 SCT120 12/08 Q1019

RJFR / Kitakyushu
VMC

RJFZ_APP

TOWER

18/36 2500x60

民間 civil

9999

280@3KT

30.06

RJFR 031600Z 28003KT CAVOK 11/07 Q1018

RJFZ / Tsuiki

RJFZ_APP

TOWER

25/07 2399x46

自衛隊 military

過去5時間に発表されたMETARがありません。

RJOW / Iwami

NO RADAR

REMOTE

11/29 2000x45

民間 civil

過去5時間に発表されたMETARがありません。

RJDT / Tsushima

NO RADAR

REMOTE

32/14 1900x45

民間 civil

過去5時間に発表されたMETARがありません。

RJFF / Fukuoka
VMC

RJFF_APP

TOWER

16/34 2800x60

民間 civil

9999

180@4KT

30.09

RJFF 031600Z AUTO 18004KT 140V210 9999 NCD 10/07 Q1019 NOSIG

RJFS / Saga
VMC

RJFF_APP

RADIO

29/11 2000x45

民間 civil

9999

310@4KT

30.09

RJFS 031400Z 31004KT CAVOK 10/07 Q1019

RJFA / Ashiya

RJFF_APP

TOWER

12/30 1640x46

自衛隊 military

過去5時間に発表されたMETARがありません。

RJDB / Iki

RJFF_APP

REMOTE

20/02 1200x30

民間 civil

過去5時間に発表されたMETARがありません。

RJFO / Oita
VMC

RJFO_APP

TOWER

01/19 3000x45

民間 civil

9999

290@3KT

30.09

RJFO 031300Z 29003KT 240V340 CAVOK 11/09 Q1019

RJFU / Nagasaki
VMC

RJFU_APP

TOWER

32/14 3000x60

民間 civil

9999

000@1KT

30.12

RJFU 031200Z VRB01KT CAVOK 13/08 Q1020

RJDU / Omura

RJFU_APP

TOWER

18/36 1200x30

自衛隊 military

過去5時間に発表されたMETARがありません。

RJFE / Fukue

NO RADAR

RADIO

03/21 2000x45

民間 civil

過去5時間に発表されたMETARがありません。

RJDO / Ojika

NO RADAR

REMOTE

03/21 800x30

民間 civil

過去5時間に発表されたMETARがありません。

RJDK / Kamigoto

NO RADAR

REMOTE

17/35 800x30

民間 civil

過去5時間に発表されたMETARがありません。

RJDA / Amakusa

NO RADAR

Flight Service

31/13 1000x30

民間 civil

過去5時間に発表されたMETARがありません。

RJFT / Kumamoto
VMC

RJFT_APP

TOWER

07/25 3000x45

民間 civil

9999

000@1KT

30.09

RJFT 031200Z VRB01KT 9999 FEW045 13/10 Q1019

RJFN / Nyutabaru

RJFM_APP

TOWER

28/10 2701x46

自衛隊 military

過去5時間に発表されたMETARがありません。

RJFM / Miyazaki
VMC

RJFM_APP

TOWER

27/09 2500x45

民間 civil

9999

260@6KT

30.09

RJFM 031200Z 26006KT 9999 FEW030 BKN110 16/12 Q1019

RJFK / Kagoshima
VMC

RJFK_APP

TOWER

34/16 3000x45

民間 civil

9999

030@3KT

30.09

RJFK 031200Z 03003KT 9999 FEW040 BKN100 BKN/// 12/11 Q1019

RJFY / Kanoya

RJFY_APP

TOWER

26L/08R 2250x45
26R/08L 1200x40

自衛隊 military

過去5時間に発表されたMETARがありません。

RJFG / Tanegashima

NO RADAR

RADIO

31/13 2000x45

民間 civil

過去5時間に発表されたMETARがありません。

RJFC / Yakushima

NO RADAR

REMOTE

14/32 1500x45

民間 civil

過去5時間に発表されたMETARがありません。

RJBG Kobe Control

ROAH / Naha
VMC

ROAH_APP

TOWER

36/18 3000x45

共用 dual

9999

100@2KT

30.03

ROAH 031600Z 10002KT 9999 -RA FEW025 BKN100 OVC110 21/16 Q1017

RORA / Aguni

ROAH_APP

REMOTE

01/19 800x25

民間 civil

過去5時間に発表されたMETARがありません。

ROKJ / Kumejima

ROAH_APP

REMOTE

03/21 2000x45

民間 civil

過去5時間に発表されたMETARがありません。

RODN / Kadena
VMC

ROAH_APP

TOWER

05L/23R 3688x91
05R/23L 3688x61

自衛隊 military

9999

000@0KT

30.05

RODN 031556Z AUTO 00000KT 10SM -DZ FEW060 OVC090 19/17 A3005 RMK AO2 DZB06E16RAB34E35DZB35 SLP182 P0000 T01900171 $

ROTM / Futenma
VMC

ROAH_APP

TOWER

06/24 2740x45

自衛隊 military

9999

120@4KT

30.06

ROTM 031556Z 12004KT 10SM OVC090 21/16 A3006 RMK AO2 RAB36E46 SLP167 T02060156 PNO

RORS / Shimojishima

RORS_APP

TOWER

17/35 3000x60

民間 civil

過去5時間に発表されたMETARがありません。

ROMY / Miyako

RORS_APP

TOWER

04/22 2000x45

民間 civil

過去5時間に発表されたMETARがありません。

ROIG / New Ishigaki

RORS_APP

TOWER

22/04 2000x45

民間 civil

過去5時間に発表されたMETARがありません。

RORT / Tarama

RORS_APP

REMOTE

36/18 1500x45

民間 civil

過去5時間に発表されたMETARがありません。

RJKA / Amami

NO RADAR

RADIO

03/21 2000x45

民間 civil

過去5時間に発表されたMETARがありません。

RJKI / Kikai
VMC

NO RADAR

REMOTE

07/25 1200x30

民間 civil

9999

260@7KT

30.06

RJKI 031600Z AUTO 26007KT 9999 -RA FEW033 SCT100 OVC110 19/13 Q1018

RJKN / Tokunoshima

NO RADAR

REMOTE

19/01 2000x45

民間 civil

過去5時間に発表されたMETARがありません。

RJKB / Okierabu

NO RADAR

REMOTE

04/22 1350x45

民間 civil

過去5時間に発表されたMETARがありません。

RORY / Yoron
VMC

NO RADAR

REMOTE

32/14 1320x30

民間 civil

9000

090@4KT

30.06

RORY 031600Z AUTO 09004KT 9000 -RA NSC 18/17 Q1018

RORK / Kitadaito
VMC

NO RADAR

REMOTE

03/21 1500x45

民間 civil

9999

110@9KT

30.03

RORK 031600Z AUTO 11009KT 9999 FEW015 SCT019 BKN025 21/18 Q1017

ROMD / Minami-daito
VMC

NO RADAR

REMOTE

02/20 1500x45

民間 civil

9999

000@4KT

30.03

ROMD 031600Z AUTO VRB04KT 9999 SCT012 BKN020 BKN029 21/19 Q1017

ROYN / Yonaguni
IMC

NO RADAR

REMOTE

26/08 2000x45

民間 civil

3900

010@23KT

30.03

ROYN 031600Z AUTO 01023KT 3900 -RA BR SCT007 BKN009 OVC012 21/20 Q1017

RORH / Hateruma

NO RADAR

REMOTE

02/20 800x25

民間 civil

過去5時間に発表されたMETARがありません。

ROKR / Kerama

NO RADAR

REMOTE

02/20 800x25

民間 civil

過去5時間に発表されたMETARがありません。